createdAt,value
2017-04-01T00:02:10.580Z,1010.963
2017-04-01T00:05:16.192Z,1010.995
2017-04-01T00:08:21.937Z,1011.000
2017-04-01T00:11:27.629Z,1011.078
2017-04-01T00:14:33.303Z,1011.107
2017-04-01T00:17:39.070Z,1011.049
2017-04-01T00:20:44.355Z,1011.101
2017-04-01T00:23:50.011Z,1011.115
2017-04-01T00:26:55.630Z,1011.086
2017-04-01T00:30:01.376Z,1011.099
2017-04-01T00:33:06.978Z,1011.111
2017-04-01T00:36:12.829Z,1011.117
2017-04-01T00:39:18.332Z,1011.148
2017-04-01T00:42:24.007Z,1011.112
2017-04-01T00:45:29.077Z,1011.127
2017-04-01T00:48:34.619Z,1011.122
2017-04-01T00:51:40.070Z,1011.183
2017-04-01T00:54:45.404Z,1011.268
2017-04-01T00:57:51.157Z,1011.262
2017-04-01T01:00:56.820Z,1011.270
2017-04-01T01:07:08.145Z,1011.293
2017-04-01T01:10:13.821Z,1011.355
2017-04-01T01:13:19.642Z,1011.447
2017-04-01T01:16:25.193Z,1011.462
2017-04-01T01:19:30.802Z,1011.473
2017-04-01T01:22:36.549Z,1011.480
2017-04-01T01:25:42.047Z,1011.448
2017-04-01T01:28:47.633Z,1011.415
2017-04-01T01:31:53.209Z,1011.391
2017-04-01T01:34:58.868Z,1011.379
2017-04-01T01:38:04.416Z,1011.439
2017-04-01T01:44:16.195Z,1011.443
2017-04-01T01:47:21.754Z,1011.440
2017-04-01T01:53:33.180Z,1011.450
2017-04-01T01:56:38.765Z,1011.468
2017-04-01T01:59:44.463Z,1011.423
2017-04-01T02:02:49.714Z,1011.350
2017-04-01T02:05:55.218Z,1011.394
2017-04-01T02:09:00.777Z,1011.409
2017-04-01T02:12:06.011Z,1011.449
2017-04-01T02:15:11.661Z,1011.473
2017-04-01T02:18:16.936Z,1011.523
2017-04-01T02:21:22.626Z,1011.526
2017-04-01T02:24:28.212Z,1011.603
2017-04-01T02:27:33.761Z,1011.644
2017-04-01T02:30:39.245Z,1011.623
2017-04-01T02:33:44.901Z,1011.636
2017-04-01T02:36:50.337Z,1011.615
2017-04-01T02:39:55.930Z,1011.618
2017-04-01T02:43:01.318Z,1011.669
2017-04-01T02:46:06.906Z,1011.670
2017-04-01T02:49:12.533Z,1011.674
2017-04-01T02:52:17.756Z,1011.650
2017-04-01T02:55:23.397Z,1011.635
2017-04-01T02:58:28.884Z,1011.703
2017-04-01T03:01:34.348Z,1011.755
2017-04-01T03:04:39.791Z,1011.796
2017-04-01T03:07:45.254Z,1011.838
2017-04-01T03:10:50.822Z,1011.843
2017-04-01T03:13:56.391Z,1011.830
2017-04-01T03:17:02.128Z,1011.770
2017-04-01T03:20:07.699Z,1011.760
2017-04-01T03:23:13.167Z,1011.743
2017-04-01T03:26:18.512Z,1011.709
2017-04-01T03:29:24.009Z,1011.677
2017-04-01T03:32:29.509Z,1011.684
2017-04-01T03:35:35.041Z,1011.644
2017-04-01T03:38:40.464Z,1011.627
2017-04-01T03:41:45.994Z,1011.660
2017-04-01T03:44:51.028Z,1011.680
2017-04-01T03:47:56.553Z,1011.671
2017-04-01T03:51:01.914Z,1011.651
2017-04-01T03:54:07.395Z,1011.667
2017-04-01T03:57:12.975Z,1011.697
2017-04-01T04:00:18.588Z,1011.763
2017-04-01T04:03:30.241Z,1011.819
2017-04-01T04:06:28.921Z,1011.914
2017-04-01T04:09:34.387Z,1011.995
2017-04-01T04:12:39.906Z,1011.997
2017-04-01T04:15:45.412Z,1011.976
2017-04-01T04:18:57.087Z,1011.957
2017-04-01T04:21:55.852Z,1011.964
2017-04-01T04:25:01.333Z,1011.923
2017-04-01T04:28:06.927Z,1011.861
2017-04-01T04:31:12.074Z,1011.792
2017-04-01T04:34:17.730Z,1011.835
2017-04-01T04:37:23.213Z,1011.840
2017-04-01T04:40:34.772Z,1011.871
2017-04-01T04:43:33.618Z,1011.900
2017-04-01T04:46:39.171Z,1011.884
2017-04-01T04:49:44.666Z,1011.817
2017-04-01T04:52:50.191Z,1011.875
2017-04-01T04:55:55.702Z,1011.878
2017-04-01T04:59:01.334Z,1011.920
2017-04-01T05:02:06.845Z,1012.014
2017-04-01T05:05:11.705Z,1012.047
2017-04-01T05:08:17.140Z,1012.108
2017-04-01T05:11:22.573Z,1012.114
2017-04-01T05:14:31.326Z,1012.113
2017-04-01T05:17:32.624Z,1012.134
2017-04-01T05:20:38.240Z,1012.165
2017-04-01T05:23:43.667Z,1012.203
2017-04-01T05:26:48.818Z,1012.238
2017-04-01T05:29:54.423Z,1012.272
2017-04-01T05:33:00.053Z,1012.298
2017-04-01T05:36:05.403Z,1012.303
2017-04-01T05:39:10.867Z,1012.274
2017-04-01T05:42:16.493Z,1012.219
2017-04-01T05:45:22.008Z,1012.245
2017-04-01T05:48:27.667Z,1012.195
2017-04-01T05:51:33.203Z,1012.249
2017-04-01T05:54:38.685Z,1012.279
2017-04-01T05:57:44.347Z,1012.329
2017-04-01T06:00:50.005Z,1012.292
2017-04-01T06:03:55.043Z,1012.262
2017-04-01T06:07:00.724Z,1012.256
2017-04-01T06:10:06.152Z,1012.295
2017-04-01T06:13:11.779Z,1012.313
2017-04-01T06:16:17.449Z,1012.299
2017-04-01T06:19:23.063Z,1012.315
2017-04-01T06:22:28.684Z,1012.290
2017-04-01T06:25:34.287Z,1012.320
2017-04-01T06:28:39.830Z,1012.341
2017-04-01T06:31:45.487Z,1012.360
2017-04-01T06:37:57.039Z,1012.347
2017-04-01T06:41:02.762Z,1012.324
2017-04-01T06:44:07.978Z,1012.305
2017-04-01T06:47:13.615Z,1012.324
2017-04-01T06:50:20.140Z,1012.338
2017-04-01T06:53:25.748Z,1012.336
2017-04-01T06:56:31.278Z,1012.349
2017-04-01T06:59:36.842Z,1012.352
2017-04-01T07:02:42.549Z,1012.347
2017-04-01T07:05:48.288Z,1012.352
2017-04-01T07:08:53.919Z,1012.389
2017-04-01T07:11:59.453Z,1012.418
2017-04-01T07:15:05.176Z,1012.432
2017-04-01T07:18:16.801Z,1012.430
2017-04-01T07:21:16.824Z,1012.432
2017-04-01T07:24:22.421Z,1012.424
2017-04-01T07:27:28.081Z,1012.471
2017-04-01T07:30:33.581Z,1012.485
2017-04-01T07:33:39.073Z,1012.541
2017-04-01T07:36:44.705Z,1012.543
2017-04-01T07:39:50.500Z,1012.582
2017-04-01T07:42:56.158Z,1012.590
2017-04-01T07:46:01.951Z,1012.579
2017-04-01T07:49:07.615Z,1012.619
2017-04-01T07:55:19.418Z,1012.668
2017-04-01T07:58:25.099Z,1012.667
2017-04-01T08:01:30.927Z,1012.652
2017-04-01T08:04:36.740Z,1012.636
2017-04-01T08:07:42.494Z,1012.647
2017-04-01T08:10:48.222Z,1012.681
2017-04-01T08:13:54.007Z,1012.684
2017-04-01T08:16:59.123Z,1012.664
2017-04-01T08:20:04.995Z,1012.662
2017-04-01T08:23:10.609Z,1012.617
2017-04-01T08:26:16.424Z,1012.612
2017-04-01T08:29:22.115Z,1012.656
2017-04-01T08:32:27.759Z,1012.683
2017-04-01T08:35:33.462Z,1012.681
2017-04-01T08:38:39.213Z,1012.675
2017-04-01T08:41:44.957Z,1012.660
2017-04-01T08:44:50.737Z,1012.605
2017-04-01T08:47:56.582Z,1012.575
2017-04-01T08:51:02.091Z,1012.572
2017-04-01T08:54:07.894Z,1012.569
2017-04-01T08:57:13.083Z,1012.598
2017-04-01T09:03:24.947Z,1012.614
2017-04-01T09:06:30.743Z,1012.608
2017-04-01T09:09:36.688Z,1012.608
2017-04-01T09:12:42.370Z,1012.605
2017-04-01T09:15:48.335Z,1012.615
2017-04-01T09:18:54.181Z,1012.589
2017-04-01T09:22:00.048Z,1012.604
2017-04-01T09:25:05.891Z,1012.587
2017-04-01T09:28:11.879Z,1012.570
2017-04-01T09:31:17.807Z,1012.593
2017-04-01T09:34:23.611Z,1012.592
2017-04-01T09:37:29.447Z,1012.595
2017-04-01T09:40:35.355Z,1012.562
2017-04-01T09:43:41.239Z,1012.548
2017-04-01T09:46:47.258Z,1012.503
2017-04-01T09:49:53.144Z,1012.492
2017-04-01T09:52:59.131Z,1012.456
2017-04-01T09:56:04.961Z,1012.423
2017-04-01T09:59:11.000Z,1012.374
2017-04-01T10:02:16.749Z,1012.382
2017-04-01T10:05:22.605Z,1012.391
2017-04-01T10:08:28.529Z,1012.304
2017-04-01T10:11:34.587Z,1012.277
2017-04-01T10:14:40.585Z,1012.257
2017-04-01T10:17:46.067Z,1012.258
2017-04-01T10:20:52.164Z,1012.244
2017-04-01T10:23:58.191Z,1012.180
2017-04-01T10:27:04.424Z,1012.125
2017-04-01T10:30:10.449Z,1012.047
2017-04-01T10:33:16.522Z,1012.000
2017-04-01T10:36:22.652Z,1012.001
2017-04-01T10:39:23.922Z,1011.903
2017-04-01T10:42:35.538Z,1011.896
2017-04-01T10:45:41.757Z,1011.865
2017-04-01T10:48:47.876Z,1011.827
2017-04-01T10:51:54.047Z,1011.800
2017-04-01T10:55:00.219Z,1011.782
2017-04-01T10:58:06.116Z,1011.809
2017-04-01T11:01:12.351Z,1011.798
2017-04-01T11:04:18.506Z,1011.800
2017-04-01T11:07:24.874Z,1011.870
2017-04-01T11:10:30.907Z,1011.848
2017-04-01T11:13:36.908Z,1011.809
2017-04-01T11:16:43.160Z,1011.815
2017-04-01T11:19:49.415Z,1011.835
2017-04-01T11:22:55.648Z,1011.801
2017-04-01T11:26:01.939Z,1011.795
2017-04-01T11:29:08.288Z,1011.718
2017-04-01T11:32:14.628Z,1011.714
2017-04-01T11:35:20.667Z,1011.761
2017-04-01T11:38:26.820Z,1011.738
2017-04-01T11:41:32.993Z,1011.693
2017-04-01T11:44:39.188Z,1011.677
2017-04-01T11:47:45.441Z,1011.675
2017-04-01T11:50:51.810Z,1011.638
2017-04-01T11:53:57.975Z,1011.659
2017-04-01T11:57:04.248Z,1011.662
2017-04-01T12:00:10.497Z,1011.660
2017-04-01T12:03:16.727Z,1011.640
2017-04-01T12:06:23.073Z,1011.586
2017-04-01T12:09:29.547Z,1011.544
2017-04-01T12:12:36.912Z,1011.520
2017-04-01T12:15:43.272Z,1011.512
2017-04-01T12:18:49.315Z,1011.460
2017-04-01T12:21:55.677Z,1011.422
2017-04-01T12:25:02.063Z,1011.369
2017-04-01T12:28:08.206Z,1011.337
2017-04-01T12:31:14.578Z,1011.340
2017-04-01T12:34:20.530Z,1011.318
2017-04-01T12:37:26.832Z,1011.328
2017-04-01T12:40:33.202Z,1011.281
2017-04-01T12:43:39.474Z,1011.292
2017-04-01T12:46:45.708Z,1011.272
2017-04-01T12:49:52.047Z,1011.217
2017-04-01T12:52:58.379Z,1011.185
2017-04-01T12:56:04.690Z,1011.177
2017-04-01T12:59:10.768Z,1011.162
2017-04-01T13:02:17.215Z,1011.141
2017-04-01T13:05:23.519Z,1011.113
2017-04-01T13:08:29.853Z,1011.100
2017-04-01T13:11:36.348Z,1011.050
2017-04-01T13:14:42.773Z,1011.067
2017-04-01T13:17:49.139Z,1011.080
2017-04-01T13:20:55.274Z,1011.077
2017-04-01T13:24:02.050Z,1011.056
2017-04-01T13:27:08.308Z,1011.016
2017-04-01T13:30:14.570Z,1010.968
2017-04-01T13:33:20.841Z,1010.991
2017-04-01T13:36:27.156Z,1010.980
2017-04-01T13:39:33.401Z,1010.959
2017-04-01T13:42:39.894Z,1010.961
2017-04-01T13:45:46.262Z,1010.954
2017-04-01T13:48:52.544Z,1010.951
2017-04-01T13:51:58.815Z,1010.955
2017-04-01T13:55:05.072Z,1010.921
2017-04-01T13:58:11.205Z,1010.870
2017-04-01T14:01:17.507Z,1010.792
2017-04-01T14:04:23.829Z,1010.737
2017-04-01T14:07:29.954Z,1010.760
2017-04-01T14:10:36.195Z,1010.698
2017-04-01T14:13:42.522Z,1010.634
2017-04-01T14:16:48.865Z,1010.638
2017-04-01T14:19:55.159Z,1010.680
2017-04-01T14:23:01.490Z,1010.603
2017-04-01T14:26:07.820Z,1010.544
2017-04-01T14:29:14.123Z,1010.519
2017-04-01T14:32:20.574Z,1010.535
2017-04-01T14:35:26.856Z,1010.540
2017-04-01T14:38:33.265Z,1010.508
2017-04-01T14:41:39.746Z,1010.533
2017-04-01T14:44:46.081Z,1010.553
2017-04-01T14:47:52.042Z,1010.583
2017-04-01T14:50:58.358Z,1010.605
2017-04-01T14:54:03.881Z,1010.547
2017-04-01T14:57:10.272Z,1010.595
2017-04-01T15:00:16.388Z,1010.622
2017-04-01T15:03:22.715Z,1010.627
2017-04-01T15:06:29.052Z,1010.630
2017-04-01T15:09:41.328Z,1010.652
2017-04-01T15:12:41.299Z,1010.612
2017-04-01T15:15:47.583Z,1010.655
2017-04-01T15:18:53.766Z,1010.715
2017-04-01T15:22:00.046Z,1010.708
2017-04-01T15:25:06.115Z,1010.637
2017-04-01T15:28:18.269Z,1010.621
2017-04-01T15:31:17.432Z,1010.679
2017-04-01T15:34:23.686Z,1010.712
2017-04-01T15:37:29.759Z,1010.789
2017-04-01T15:40:35.931Z,1010.806
2017-04-01T15:43:42.143Z,1010.768
2017-04-01T15:46:54.543Z,1010.754
2017-04-01T15:49:58.712Z,1010.800
2017-04-01T15:53:03.132Z,1010.761
2017-04-01T15:56:07.432Z,1010.705
2017-04-01T15:59:13.564Z,1010.720
2017-04-01T16:02:18.443Z,1010.789
2017-04-01T16:05:23.702Z,1010.836
2017-04-01T16:08:29.856Z,1010.884
2017-04-01T16:11:35.190Z,1010.906
2017-04-01T16:14:40.405Z,1010.946
2017-04-01T16:17:45.504Z,1010.951
2017-04-01T16:20:50.604Z,1010.977
2017-04-01T16:23:56.851Z,1010.946
2017-04-01T16:27:02.140Z,1010.918
2017-04-01T16:33:13.515Z,1010.904
2017-04-01T16:36:20.058Z,1010.923
2017-04-01T16:39:19.237Z,1010.914
2017-04-01T16:42:30.607Z,1010.829
2017-04-01T16:45:36.449Z,1010.856
2017-04-01T16:51:44.202Z,1010.839
2017-04-01T16:54:43.191Z,1010.823
2017-04-01T16:57:48.444Z,1010.829
2017-04-01T17:00:54.469Z,1010.782
2017-04-01T17:04:05.892Z,1010.783
2017-04-01T17:07:11.210Z,1010.813
2017-04-01T17:10:16.543Z,1010.783
2017-04-01T17:13:21.526Z,1010.772
2017-04-01T17:16:27.646Z,1010.765
2017-04-01T17:19:32.792Z,1010.712
2017-04-01T17:22:37.883Z,1010.765
2017-04-01T17:25:36.692Z,1010.842
2017-04-01T17:28:48.422Z,1010.845
2017-04-01T17:31:54.794Z,1010.856
2017-04-01T17:34:59.399Z,1010.927
2017-04-01T17:38:04.629Z,1010.937
2017-04-01T17:41:09.705Z,1010.863
2017-04-01T17:44:14.380Z,1010.890
2017-04-01T17:47:20.784Z,1010.885
2017-04-01T17:50:26.338Z,1010.982
2017-04-01T17:53:25.647Z,1011.033
2017-04-01T17:56:31.600Z,1011.105
2017-04-01T17:59:43.429Z,1011.175
2017-04-01T18:02:48.631Z,1011.242
2017-04-01T18:05:53.788Z,1011.329
2017-04-01T18:08:59.904Z,1011.323
2017-04-01T18:15:12.020Z,1011.393
2017-04-01T18:18:17.221Z,1011.394
2017-04-01T18:21:22.338Z,1011.428
2017-04-01T18:24:27.520Z,1011.488
2017-04-01T18:27:33.900Z,1011.523
2017-04-01T18:30:39.193Z,1011.478
2017-04-01T18:33:44.290Z,1011.559
2017-04-01T18:36:44.048Z,1011.582
2017-04-01T18:39:55.811Z,1011.647
2017-04-01T18:43:02.087Z,1011.628
2017-04-01T18:46:08.239Z,1011.631
2017-04-01T18:49:12.827Z,1011.577
2017-04-01T18:52:17.594Z,1011.550
2017-04-01T18:55:16.782Z,1011.555
2017-04-01T18:58:28.354Z,1011.577
2017-04-01T19:01:33.433Z,1011.583
2017-04-01T19:04:39.634Z,1011.568
2017-04-01T19:07:38.757Z,1011.589
2017-04-01T19:10:50.430Z,1011.600
2017-04-01T19:13:55.289Z,1011.625
2017-04-01T19:17:00.179Z,1011.603
2017-04-01T19:19:59.087Z,1011.551
2017-04-01T19:23:05.378Z,1011.567
2017-04-01T19:26:16.966Z,1011.652
2017-04-01T19:29:22.204Z,1011.719
2017-04-01T19:32:26.625Z,1011.701
2017-04-01T19:35:31.785Z,1011.669
2017-04-01T19:38:30.630Z,1011.692
2017-04-01T19:41:41.988Z,1011.738
2017-04-01T19:44:40.993Z,1011.812
2017-04-01T19:47:46.748Z,1011.828
2017-04-01T19:50:58.192Z,1011.793
2017-04-01T19:54:04.066Z,1011.773
2017-04-01T19:57:09.386Z,1011.815
2017-04-01T20:00:08.232Z,1011.819
2017-04-01T20:03:19.979Z,1011.824
2017-04-01T20:06:18.680Z,1011.815
2017-04-01T20:09:30.250Z,1011.839
2017-04-01T20:12:35.477Z,1011.874
2017-04-01T20:15:34.142Z,1011.931
2017-04-01T20:18:45.869Z,1011.963
2017-04-01T20:21:44.781Z,1012.017
2017-04-01T20:24:50.446Z,1011.990
2017-04-01T20:27:56.363Z,1011.990
2017-04-01T20:31:08.168Z,1011.974
2017-04-01T20:34:06.762Z,1012.003
2017-04-01T20:37:18.281Z,1012.036
2017-04-01T20:40:17.282Z,1012.020
2017-04-01T20:43:23.201Z,1012.101
2017-04-01T20:46:35.016Z,1012.166
2017-04-01T20:49:33.709Z,1012.178
2017-04-01T20:52:44.507Z,1012.184
2017-04-01T20:55:50.725Z,1012.208
2017-04-01T20:58:49.031Z,1012.202
2017-04-01T21:01:54.603Z,1012.224
2017-04-01T21:05:00.379Z,1012.333
2017-04-01T21:08:12.271Z,1012.336
2017-04-01T21:11:16.963Z,1012.285
2017-04-01T21:14:22.221Z,1012.227
2017-04-01T21:17:26.962Z,1012.134
2017-04-01T21:20:33.230Z,1012.049
2017-04-01T21:23:37.367Z,1011.997
2017-04-01T21:26:42.289Z,1011.998
2017-04-01T21:29:40.790Z,1011.956
2017-04-01T21:32:46.523Z,1012.032
2017-04-01T21:35:58.076Z,1012.100
2017-04-01T21:39:03.010Z,1012.069
2017-04-01T21:45:13.793Z,1012.005
2017-04-01T21:48:18.650Z,1011.920
2017-04-01T21:51:24.642Z,1011.897
2017-04-01T21:54:29.321Z,1011.826
2017-04-01T21:57:34.263Z,1011.804
2017-04-01T22:00:39.327Z,1011.871
2017-04-01T22:06:50.279Z,1011.878
2017-04-01T22:09:55.076Z,1011.790
2017-04-01T22:13:01.252Z,1011.695
2017-04-01T22:16:05.619Z,1011.592
2017-04-01T22:19:10.580Z,1011.538
2017-04-01T22:22:15.141Z,1011.520
2017-04-01T22:25:20.250Z,1011.604
2017-04-01T22:28:25.032Z,1011.673
2017-04-01T22:31:31.086Z,1011.747
2017-04-01T22:34:29.813Z,1011.774
2017-04-01T22:37:41.437Z,1011.791
2017-04-01T22:40:46.125Z,1011.866
2017-04-01T22:43:50.717Z,1011.924
2017-04-01T22:46:56.004Z,1011.998
2017-04-01T22:53:06.719Z,1012.221
2017-04-01T22:56:11.119Z,1012.239
2017-04-01T22:59:17.156Z,1012.284
2017-04-01T23:02:22.013Z,1012.324
2017-04-01T23:05:26.643Z,1012.408
2017-04-01T23:08:31.204Z,1012.578
2017-04-01T23:11:37.014Z,1013.168
2017-04-01T23:17:48.256Z,1013.124
2017-04-01T23:20:53.235Z,1013.119
2017-04-01T23:23:58.170Z,1013.224
2017-04-01T23:30:07.645Z,1013.181
2017-04-01T23:33:12.622Z,1013.220
2017-04-01T23:36:18.475Z,1013.211
2017-04-01T23:39:23.203Z,1013.192
2017-04-01T23:42:28.340Z,1013.173
2017-04-01T23:45:33.314Z,1013.161
2017-04-01T23:48:32.004Z,1013.145
2017-04-01T23:51:43.471Z,1013.119
2017-04-01T23:54:48.500Z,1013.093
2017-04-01T23:57:53.548Z,1013.028
